Weather at Aeropuerto Internacional de Zihuatanejo

Public forecast

Using degrees Celsius for public forecast. Weather courtesy of forecast.io.

Current aviation weather report (METAR) for Aeropuerto Internacional de Zihuatanejo

2024/05/28 21:40 (retrieved 1 hour ago)

MMZH 282140Z 23008KT 7SM SKC 34/21 A2985 RMK HZY ISOL CI

Aviation forecast (TAF) for Aeropuerto Internacional de Zihuatanejo

2024/05/28 18:15 (retrieved 5 hours ago)

TAF MMZH 281607Z 2818/2918 22010KT 6SM HZ SKC FM290200 24005KT 6SM HZ SKC FM291800 24010KT P6SM SKC